sensor_id;sensor_type;location;lat;lon;timestamp;temperature;humidity
17483;DHT22;8858;52.308;20.994;2023-06-22T00:02:22;21.10;99.90
17483;DHT22;8858;52.308;20.994;2023-06-22T00:04:51;21.10;99.90
17483;DHT22;8858;52.308;20.994;2023-06-22T00:07:20;21.00;99.90
17483;DHT22;8858;52.308;20.994;2023-06-22T00:09:50;21.00;99.90
17483;DHT22;8858;52.308;20.994;2023-06-22T00:12:19;21.00;99.90
17483;DHT22;8858;52.308;20.994;2023-06-22T00:14:51;21.00;99.90
17483;DHT22;8858;52.308;20.994;2023-06-22T00:17:21;20.90;99.90
17483;DHT22;8858;52.308;20.994;2023-06-22T00:19:50;20.90;99.90
17483;DHT22;8858;52.308;20.994;2023-06-22T00:22:21;20.90;99.90
17483;DHT22;8858;52.308;20.994;2023-06-22T00:24:56;20.80;99.90
17483;DHT22;8858;52.308;20.994;2023-06-22T00:27:28;20.80;99.90
17483;DHT22;8858;52.308;20.994;2023-06-22T00:29:58;20.80;99.90
17483;DHT22;8858;52.308;20.994;2023-06-22T00:32:29;20.70;99.90
17483;DHT22;8858;52.308;20.994;2023-06-22T00:34:58;20.70;99.90
17483;DHT22;8858;52.308;20.994;2023-06-22T00:37:29;20.70;99.90
17483;DHT22;8858;52.308;20.994;2023-06-22T00:39:58;20.70;99.90
17483;DHT22;8858;52.308;20.994;2023-06-22T00:42:26;20.60;99.90
17483;DHT22;8858;52.308;20.994;2023-06-22T00:44:55;20.60;99.90
17483;DHT22;8858;52.308;20.994;2023-06-22T00:47:25;20.60;99.90
17483;DHT22;8858;52.308;20.994;2023-06-22T00:49:56;20.60;99.90
17483;DHT22;8858;52.308;20.994;2023-06-22T00:52:25;20.50;99.90
17483;DHT22;8858;52.308;20.994;2023-06-22T00:54:57;20.50;99.90
17483;DHT22;8858;52.308;20.994;2023-06-22T00:57:32;20.50;99.90
17483;DHT22;8858;52.308;20.994;2023-06-22T01:00:00;20.50;99.90
17483;DHT22;8858;52.308;20.994;2023-06-22T01:02:33;20.50;99.90
17483;DHT22;8858;52.308;20.994;2023-06-22T01:05:04;20.50;99.90
17483;DHT22;8858;52.308;20.994;2023-06-22T01:07:37;20.50;99.90
17483;DHT22;8858;52.308;20.994;2023-06-22T01:10:10;20.40;99.90
17483;DHT22;8858;52.308;20.994;2023-06-22T01:12:45;20.40;99.90
17483;DHT22;8858;52.308;20.994;2023-06-22T01:15:21;20.40;99.90
17483;DHT22;8858;52.308;20.994;2023-06-22T01:17:52;20.40;99.90
17483;DHT22;8858;52.308;20.994;2023-06-22T01:20:23;20.40;99.90
17483;DHT22;8858;52.308;20.994;2023-06-22T01:23:07;20.30;99.90
17483;DHT22;8858;52.308;20.994;2023-06-22T01:25:45;20.30;99.90
17483;DHT22;8858;52.308;20.994;2023-06-22T01:28:34;20.30;99.90
17483;DHT22;8858;52.308;20.994;2023-06-22T01:31:09;20.30;99.90
17483;DHT22;8858;52.308;20.994;2023-06-22T01:33:42;20.30;99.90
17483;DHT22;8858;52.308;20.994;2023-06-22T01:36:13;20.30;99.90
17483;DHT22;8858;52.308;20.994;2023-06-22T01:38:47;20.30;99.90
17483;DHT22;8858;52.308;20.994;2023-06-22T01:41:19;20.30;99.90
17483;DHT22;8858;52.308;20.994;2023-06-22T01:43:49;20.30;99.90
17483;DHT22;8858;52.308;20.994;2023-06-22T01:46:20;20.30;99.90
17483;DHT22;8858;52.308;20.994;2023-06-22T01:48:50;20.30;99.90
17483;DHT22;8858;52.308;20.994;2023-06-22T01:51:21;20.30;99.90
17483;DHT22;8858;52.308;20.994;2023-06-22T01:53:50;20.30;99.90
17483;DHT22;8858;52.308;20.994;2023-06-22T01:56:20;20.30;99.90
17483;DHT22;8858;52.308;20.994;2023-06-22T01:59:00;20.30;99.90
17483;DHT22;8858;52.308;20.994;2023-06-22T02:01:34;20.40;99.90
17483;DHT22;8858;52.308;20.994;2023-06-22T02:04:11;20.40;99.90
17483;DHT22;8858;52.308;20.994;2023-06-22T02:06:43;20.40;99.90
17483;DHT22;8858;52.308;20.994;2023-06-22T02:09:17;20.40;99.90
17483;DHT22;8858;52.308;20.994;2023-06-22T02:11:51;20.40;99.90
17483;DHT22;8858;52.308;20.994;2023-06-22T02:14:27;20.40;99.90
17483;DHT22;8858;52.308;20.994;2023-06-22T02:16:56;20.30;99.90
17483;DHT22;8858;52.308;20.994;2023-06-22T02:19:27;20.30;99.90
17483;DHT22;8858;52.308;20.994;2023-06-22T02:22:01;20.30;99.90
17483;DHT22;8858;52.308;20.994;2023-06-22T02:24:29;20.30;99.90
17483;DHT22;8858;52.308;20.994;2023-06-22T02:26:59;20.30;99.90
17483;DHT22;8858;52.308;20.994;2023-06-22T02:29:29;20.30;99.90
17483;DHT22;8858;52.308;20.994;2023-06-22T02:31:59;20.20;99.90
17483;DHT22;8858;52.308;20.994;2023-06-22T02:34:27;20.30;99.90
17483;DHT22;8858;52.308;20.994;2023-06-22T02:36:55;20.20;99.90
17483;DHT22;8858;52.308;20.994;2023-06-22T02:39:26;20.20;99.90
17483;DHT22;8858;52.308;20.994;2023-06-22T02:41:55;20.20;99.90
17483;DHT22;8858;52.308;20.994;2023-06-22T02:44:26;20.20;99.90
17483;DHT22;8858;52.308;20.994;2023-06-22T02:46:56;20.20;99.90
17483;DHT22;8858;52.308;20.994;2023-06-22T02:49:25;20.20;99.90
17483;DHT22;8858;52.308;20.994;2023-06-22T02:51:55;20.20;99.90
17483;DHT22;8858;52.308;20.994;2023-06-22T02:54:23;20.20;99.90
17483;DHT22;8858;52.308;20.994;2023-06-22T02:56:55;20.10;99.90
17483;DHT22;8858;52.308;20.994;2023-06-22T02:59:24;20.20;99.90
17483;DHT22;8858;52.308;20.994;2023-06-22T03:02:01;20.20;99.90
17483;DHT22;8858;52.308;20.994;2023-06-22T03:04:32;20.20;99.90
17483;DHT22;8858;52.308;20.994;2023-06-22T03:07:00;20.20;99.90
17483;DHT22;8858;52.308;20.994;2023-06-22T03:09:30;20.20;99.90
17483;DHT22;8858;52.308;20.994;2023-06-22T03:11:59;20.20;99.90
17483;DHT22;8858;52.308;20.994;2023-06-22T03:14:53;20.20;99.90
17483;DHT22;8858;52.308;20.994;2023-06-22T03:17:23;20.20;99.90
17483;DHT22;8858;52.308;20.994;2023-06-22T03:19:51;20.10;99.90
17483;DHT22;8858;52.308;20.994;2023-06-22T03:22:20;20.20;99.90
17483;DHT22;8858;52.308;20.994;2023-06-22T03:24:48;20.20;99.90
17483;DHT22;8858;52.308;20.994;2023-06-22T03:27:17;20.20;99.90
17483;DHT22;8858;52.308;20.994;2023-06-22T03:29:45;20.20;99.90
17483;DHT22;8858;52.308;20.994;2023-06-22T03:32:16;20.20;99.90
17483;DHT22;8858;52.308;20.994;2023-06-22T03:34:46;20.20;99.90
17483;DHT22;8858;52.308;20.994;2023-06-22T03:37:16;20.20;99.90
17483;DHT22;8858;52.308;20.994;2023-06-22T03:39:45;20.20;99.90
17483;DHT22;8858;52.308;20.994;2023-06-22T03:42:15;20.10;99.90
17483;DHT22;8858;52.308;20.994;2023-06-22T03:44:43;20.10;99.90
17483;DHT22;8858;52.308;20.994;2023-06-22T03:47:13;20.10;99.90
17483;DHT22;8858;52.308;20.994;2023-06-22T03:49:46;20.20;99.90
17483;DHT22;8858;52.308;20.994;2023-06-22T03:52:16;20.20;99.90
17483;DHT22;8858;52.308;20.994;2023-06-22T03:54:44;20.20;99.90
17483;DHT22;8858;52.308;20.994;2023-06-22T03:57:13;20.20;99.90
17483;DHT22;8858;52.308;20.994;2023-06-22T03:59:41;20.20;99.90
17483;DHT22;8858;52.308;20.994;2023-06-22T04:02:11;20.30;99.90
17483;DHT22;8858;52.308;20.994;2023-06-22T04:04:40;20.30;99.90
17483;DHT22;8858;52.308;20.994;2023-06-22T04:07:10;20.40;99.90
17483;DHT22;8858;52.308;20.994;2023-06-22T04:09:40;20.40;99.90
17483;DHT22;8858;52.308;20.994;2023-06-22T04:12:08;20.50;99.90
17483;DHT22;8858;52.308;20.994;2023-06-22T04:14:40;20.60;99.90
17483;DHT22;8858;52.308;20.994;2023-06-22T04:17:08;20.60;99.90
17483;DHT22;8858;52.308;20.994;2023-06-22T04:19:36;20.70;99.90
17483;DHT22;8858;52.308;20.994;2023-06-22T04:22:09;20.70;99.90
17483;DHT22;8858;52.308;20.994;2023-06-22T04:24:41;20.70;99.90
17483;DHT22;8858;52.308;20.994;2023-06-22T04:27:09;20.80;99.90
17483;DHT22;8858;52.308;20.994;2023-06-22T04:29:38;20.90;99.90
17483;DHT22;8858;52.308;20.994;2023-06-22T04:32:16;20.90;99.90
17483;DHT22;8858;52.308;20.994;2023-06-22T04:34:44;20.90;99.90
17483;DHT22;8858;52.308;20.994;2023-06-22T04:37:14;21.00;99.90
17483;DHT22;8858;52.308;20.994;2023-06-22T04:39:45;21.00;99.90
17483;DHT22;8858;52.308;20.994;2023-06-22T04:42:14;21.00;99.90
17483;DHT22;8858;52.308;20.994;2023-06-22T04:44:44;21.00;99.90
17483;DHT22;8858;52.308;20.994;2023-06-22T04:47:12;21.10;99.90
17483;DHT22;8858;52.308;20.994;2023-06-22T04:49:40;21.10;99.90
17483;DHT22;8858;52.308;20.994;2023-06-22T04:52:11;21.10;99.90
17483;DHT22;8858;52.308;20.994;2023-06-22T04:54:41;21.10;99.90
17483;DHT22;8858;52.308;20.994;2023-06-22T04:57:14;21.20;99.90
17483;DHT22;8858;52.308;20.994;2023-06-22T04:59:43;21.30;99.90
17483;DHT22;8858;52.308;20.994;2023-06-22T05:02:11;21.30;99.90
17483;DHT22;8858;52.308;20.994;2023-06-22T05:04:41;21.40;99.90
17483;DHT22;8858;52.308;20.994;2023-06-22T05:07:10;21.40;99.90
17483;DHT22;8858;52.308;20.994;2023-06-22T05:09:38;21.50;99.90
17483;DHT22;8858;52.308;20.994;2023-06-22T05:12:09;21.40;99.90
17483;DHT22;8858;52.308;20.994;2023-06-22T05:14:38;21.50;99.90
17483;DHT22;8858;52.308;20.994;2023-06-22T05:17:08;21.50;99.90
17483;DHT22;8858;52.308;20.994;2023-06-22T05:19:42;21.60;99.90
17483;DHT22;8858;52.308;20.994;2023-06-22T05:22:15;21.70;99.90
17483;DHT22;8858;52.308;20.994;2023-06-22T05:24:43;21.70;99.90
17483;DHT22;8858;52.308;20.994;2023-06-22T05:27:13;21.70;99.90
17483;DHT22;8858;52.308;20.994;2023-06-22T05:29:41;21.70;99.90
17483;DHT22;8858;52.308;20.994;2023-06-22T05:32:10;21.80;99.90
17483;DHT22;8858;52.308;20.994;2023-06-22T05:34:38;21.80;99.90
17483;DHT22;8858;52.308;20.994;2023-06-22T05:37:07;21.90;99.90
17483;DHT22;8858;52.308;20.994;2023-06-22T05:39:37;21.90;99.90
17483;DHT22;8858;52.308;20.994;2023-06-22T05:42:06;21.90;99.90
17483;DHT22;8858;52.308;20.994;2023-06-22T05:44:38;22.00;99.90
17483;DHT22;8858;52.308;20.994;2023-06-22T05:47:10;22.00;99.90
17483;DHT22;8858;52.308;20.994;2023-06-22T05:49:39;22.00;99.90
17483;DHT22;8858;52.308;20.994;2023-06-22T05:52:07;22.00;99.90
17483;DHT22;8858;52.308;20.994;2023-06-22T05:54:36;22.00;99.90
17483;DHT22;8858;52.308;20.994;2023-06-22T05:57:05;22.00;99.90
17483;DHT22;8858;52.308;20.994;2023-06-22T05:59:34;22.00;99.90
17483;DHT22;8858;52.308;20.994;2023-06-22T06:02:04;22.00;99.90
17483;DHT22;8858;52.308;20.994;2023-06-22T06:04:32;22.10;99.90
17483;DHT22;8858;52.308;20.994;2023-06-22T06:07:01;22.20;99.90
17483;DHT22;8858;52.308;20.994;2023-06-22T06:09:29;22.30;99.90
17483;DHT22;8858;52.308;20.994;2023-06-22T06:12:00;22.40;99.90
17483;DHT22;8858;52.308;20.994;2023-06-22T06:14:29;22.40;99.90
17483;DHT22;8858;52.308;20.994;2023-06-22T06:16:58;22.40;99.90
17483;DHT22;8858;52.308;20.994;2023-06-22T06:19:29;22.40;99.90
17483;DHT22;8858;52.308;20.994;2023-06-22T06:21:58;22.50;99.90
17483;DHT22;8858;52.308;20.994;2023-06-22T06:24:28;22.50;99.90
17483;DHT22;8858;52.308;20.994;2023-06-22T06:26:57;22.50;99.90
17483;DHT22;8858;52.308;20.994;2023-06-22T06:29:26;22.60;99.90
17483;DHT22;8858;52.308;20.994;2023-06-22T06:31:56;22.60;99.90
17483;DHT22;8858;52.308;20.994;2023-06-22T06:34:24;22.60;99.90
17483;DHT22;8858;52.308;20.994;2023-06-22T06:36:56;22.60;99.90
17483;DHT22;8858;52.308;20.994;2023-06-22T06:39:24;22.70;99.90
17483;DHT22;8858;52.308;20.994;2023-06-22T06:41:53;22.90;99.90
17483;DHT22;8858;52.308;20.994;2023-06-22T06:44:24;23.00;99.90
17483;DHT22;8858;52.308;20.994;2023-06-22T06:46:53;23.20;99.90
17483;DHT22;8858;52.308;20.994;2023-06-22T06:49:25;23.20;99.90
17483;DHT22;8858;52.308;20.994;2023-06-22T06:51:53;23.20;99.90
17483;DHT22;8858;52.308;20.994;2023-06-22T06:54:24;23.20;99.90
17483;DHT22;8858;52.308;20.994;2023-06-22T06:56:52;23.30;99.90
17483;DHT22;8858;52.308;20.994;2023-06-22T06:59:20;23.30;99.90
17483;DHT22;8858;52.308;20.994;2023-06-22T07:01:49;23.40;99.90
17483;DHT22;8858;52.308;20.994;2023-06-22T07:04:17;23.50;99.90
17483;DHT22;8858;52.308;20.994;2023-06-22T07:06:45;23.60;99.90
17483;DHT22;8858;52.308;20.994;2023-06-22T07:09:13;23.70;99.90
17483;DHT22;8858;52.308;20.994;2023-06-22T07:11:43;23.80;99.90
17483;DHT22;8858;52.308;20.994;2023-06-22T07:14:11;23.80;99.90
17483;DHT22;8858;52.308;20.994;2023-06-22T07:16:40;23.70;99.90
17483;DHT22;8858;52.308;20.994;2023-06-22T07:19:10;23.70;99.90
17483;DHT22;8858;52.308;20.994;2023-06-22T07:21:40;23.70;99.90
17483;DHT22;8858;52.308;20.994;2023-06-22T07:24:08;23.80;99.90
17483;DHT22;8858;52.308;20.994;2023-06-22T07:26:36;24.00;99.90
17483;DHT22;8858;52.308;20.994;2023-06-22T07:29:08;24.10;99.90
17483;DHT22;8858;52.308;20.994;2023-06-22T07:31:36;24.10;99.90
17483;DHT22;8858;52.308;20.994;2023-06-22T07:34:07;24.00;99.90
17483;DHT22;8858;52.308;20.994;2023-06-22T07:36:35;24.10;99.90
17483;DHT22;8858;52.308;20.994;2023-06-22T07:39:03;24.20;99.90
17483;DHT22;8858;52.308;20.994;2023-06-22T07:41:34;24.20;99.90
17483;DHT22;8858;52.308;20.994;2023-06-22T07:44:03;24.10;99.90
17483;DHT22;8858;52.308;20.994;2023-06-22T07:46:36;24.20;99.90
17483;DHT22;8858;52.308;20.994;2023-06-22T07:49:04;24.10;99.90
17483;DHT22;8858;52.308;20.994;2023-06-22T07:51:39;24.20;99.90
17483;DHT22;8858;52.308;20.994;2023-06-22T07:54:09;24.30;99.90
17483;DHT22;8858;52.308;20.994;2023-06-22T07:56:38;24.40;99.90
17483;DHT22;8858;52.308;20.994;2023-06-22T07:59:06;24.40;99.90
17483;DHT22;8858;52.308;20.994;2023-06-22T08:01:36;24.50;99.90
17483;DHT22;8858;52.308;20.994;2023-06-22T08:04:04;24.50;99.90
17483;DHT22;8858;52.308;20.994;2023-06-22T08:06:33;24.60;99.90
17483;DHT22;8858;52.308;20.994;2023-06-22T08:09:02;24.70;99.90
17483;DHT22;8858;52.308;20.994;2023-06-22T08:11:32;24.80;99.90
17483;DHT22;8858;52.308;20.994;2023-06-22T08:14:01;24.80;99.90
17483;DHT22;8858;52.308;20.994;2023-06-22T08:16:29;24.90;99.90
17483;DHT22;8858;52.308;20.994;2023-06-22T08:19:01;25.00;99.90
17483;DHT22;8858;52.308;20.994;2023-06-22T08:21:29;25.10;99.90
17483;DHT22;8858;52.308;20.994;2023-06-22T08:23:58;25.20;99.90
17483;DHT22;8858;52.308;20.994;2023-06-22T08:26:27;25.20;99.90
17483;DHT22;8858;52.308;20.994;2023-06-22T08:28:55;25.30;99.90
17483;DHT22;8858;52.308;20.994;2023-06-22T08:31:26;25.30;99.90
17483;DHT22;8858;52.308;20.994;2023-06-22T08:33:55;25.30;99.90
17483;DHT22;8858;52.308;20.994;2023-06-22T08:36:28;25.40;99.90
17483;DHT22;8858;52.308;20.994;2023-06-22T08:38:57;25.50;99.90
17483;DHT22;8858;52.308;20.994;2023-06-22T08:41:28;25.60;99.90
17483;DHT22;8858;52.308;20.994;2023-06-22T08:43:56;25.50;99.90
17483;DHT22;8858;52.308;20.994;2023-06-22T08:46:25;25.50;99.90
17483;DHT22;8858;52.308;20.994;2023-06-22T08:48:57;25.50;99.90
17483;DHT22;8858;52.308;20.994;2023-06-22T08:51:28;25.70;99.90
17483;DHT22;8858;52.308;20.994;2023-06-22T08:53:56;25.70;99.90
17483;DHT22;8858;52.308;20.994;2023-06-22T08:56:25;25.80;99.90
17483;DHT22;8858;52.308;20.994;2023-06-22T08:58:53;25.90;99.90
17483;DHT22;8858;52.308;20.994;2023-06-22T09:01:24;25.90;99.90
17483;DHT22;8858;52.308;20.994;2023-06-22T09:03:52;25.90;99.90
17483;DHT22;8858;52.308;20.994;2023-06-22T09:06:25;26.00;99.90
17483;DHT22;8858;52.308;20.994;2023-06-22T09:08:54;26.00;99.90
17483;DHT22;8858;52.308;20.994;2023-06-22T09:11:23;26.10;99.90
17483;DHT22;8858;52.308;20.994;2023-06-22T09:13:51;26.20;99.90
17483;DHT22;8858;52.308;20.994;2023-06-22T09:16:20;26.20;99.90
17483;DHT22;8858;52.308;20.994;2023-06-22T09:18:49;26.30;99.90
17483;DHT22;8858;52.308;20.994;2023-06-22T09:21:17;26.30;99.90
17483;DHT22;8858;52.308;20.994;2023-06-22T09:23:45;26.30;99.90
17483;DHT22;8858;52.308;20.994;2023-06-22T09:26:21;26.40;99.90
17483;DHT22;8858;52.308;20.994;2023-06-22T09:28:50;26.50;99.90
17483;DHT22;8858;52.308;20.994;2023-06-22T09:31:19;26.50;99.90
17483;DHT22;8858;52.308;20.994;2023-06-22T09:33:52;26.50;99.90
17483;DHT22;8858;52.308;20.994;2023-06-22T09:36:21;26.50;99.90
17483;DHT22;8858;52.308;20.994;2023-06-22T09:38:50;26.50;99.90
17483;DHT22;8858;52.308;20.994;2023-06-22T09:41:26;26.40;99.90
17483;DHT22;8858;52.308;20.994;2023-06-22T09:43:55;26.40;99.90
17483;DHT22;8858;52.308;20.994;2023-06-22T09:46:24;26.50;99.90
17483;DHT22;8858;52.308;20.994;2023-06-22T09:48:52;26.60;99.90
17483;DHT22;8858;52.308;20.994;2023-06-22T09:51:23;26.60;99.90
17483;DHT22;8858;52.308;20.994;2023-06-22T09:53:51;26.60;99.90
17483;DHT22;8858;52.308;20.994;2023-06-22T09:56:20;26.70;99.90
17483;DHT22;8858;52.308;20.994;2023-06-22T09:58:50;26.80;99.90
17483;DHT22;8858;52.308;20.994;2023-06-22T10:01:24;26.80;99.90
17483;DHT22;8858;52.308;20.994;2023-06-22T10:03:52;26.90;99.90
17483;DHT22;8858;52.308;20.994;2023-06-22T10:06:24;26.90;99.90
17483;DHT22;8858;52.308;20.994;2023-06-22T10:08:53;26.80;99.90
17483;DHT22;8858;52.308;20.994;2023-06-22T10:11:22;26.80;99.90
17483;DHT22;8858;52.308;20.994;2023-06-22T10:14:00;26.80;99.90
17483;DHT22;8858;52.308;20.994;2023-06-22T10:16:31;26.90;99.90
17483;DHT22;8858;52.308;20.994;2023-06-22T10:18:59;27.00;99.90
17483;DHT22;8858;52.308;20.994;2023-06-22T10:21:28;27.00;99.90
17483;DHT22;8858;52.308;20.994;2023-06-22T10:23:56;27.00;99.90
17483;DHT22;8858;52.308;20.994;2023-06-22T10:26:27;27.10;99.90
17483;DHT22;8858;52.308;20.994;2023-06-22T10:28:56;27.10;99.90
17483;DHT22;8858;52.308;20.994;2023-06-22T10:31:44;27.20;99.90
17483;DHT22;8858;52.308;20.994;2023-06-22T10:34:12;27.30;99.90
17483;DHT22;8858;52.308;20.994;2023-06-22T10:36:43;27.40;99.90
17483;DHT22;8858;52.308;20.994;2023-06-22T10:39:14;27.40;99.90
17483;DHT22;8858;52.308;20.994;2023-06-22T10:41:43;27.40;99.90
17483;DHT22;8858;52.308;20.994;2023-06-22T10:44:12;27.40;99.90
17483;DHT22;8858;52.308;20.994;2023-06-22T10:46:40;27.60;99.90
17483;DHT22;8858;52.308;20.994;2023-06-22T10:49:10;27.70;99.90
17483;DHT22;8858;52.308;20.994;2023-06-22T10:51:39;27.80;99.90
17483;DHT22;8858;52.308;20.994;2023-06-22T10:54:08;27.80;99.90
17483;DHT22;8858;52.308;20.994;2023-06-22T10:56:38;27.70;99.90
17483;DHT22;8858;52.308;20.994;2023-06-22T10:59:07;27.70;99.90
17483;DHT22;8858;52.308;20.994;2023-06-22T11:01:35;27.70;99.90
17483;DHT22;8858;52.308;20.994;2023-06-22T11:04:04;27.70;99.90
17483;DHT22;8858;52.308;20.994;2023-06-22T11:06:33;27.70;99.90
17483;DHT22;8858;52.308;20.994;2023-06-22T11:09:02;27.80;99.90
17483;DHT22;8858;52.308;20.994;2023-06-22T11:11:51;28.00;99.90
17483;DHT22;8858;52.308;20.994;2023-06-22T11:14:20;27.90;99.90
17483;DHT22;8858;52.308;20.994;2023-06-22T11:16:49;28.10;99.90
17483;DHT22;8858;52.308;20.994;2023-06-22T11:19:17;28.20;99.90
17483;DHT22;8858;52.308;20.994;2023-06-22T11:21:47;28.20;99.90
17483;DHT22;8858;52.308;20.994;2023-06-22T11:24:16;28.30;99.90
17483;DHT22;8858;52.308;20.994;2023-06-22T11:26:45;28.30;99.90
17483;DHT22;8858;52.308;20.994;2023-06-22T11:29:13;28.40;99.90
17483;DHT22;8858;52.308;20.994;2023-06-22T11:32:05;28.60;99.90
17483;DHT22;8858;52.308;20.994;2023-06-22T11:34:34;28.80;99.90
17483;DHT22;8858;52.308;20.994;2023-06-22T11:37:04;29.00;99.90
17483;DHT22;8858;52.308;20.994;2023-06-22T11:39:32;29.00;99.90
17483;DHT22;8858;52.308;20.994;2023-06-22T11:42:13;29.10;99.90
17483;DHT22;8858;52.308;20.994;2023-06-22T11:44:42;29.10;99.90
17483;DHT22;8858;52.308;20.994;2023-06-22T11:47:10;29.10;99.90
17483;DHT22;8858;52.308;20.994;2023-06-22T11:49:39;29.10;99.90
17483;DHT22;8858;52.308;20.994;2023-06-22T11:52:09;29.20;99.90
17483;DHT22;8858;52.308;20.994;2023-06-22T11:54:38;29.40;99.90
17483;DHT22;8858;52.308;20.994;2023-06-22T11:57:06;29.50;99.90
17483;DHT22;8858;52.308;20.994;2023-06-22T11:59:35;29.40;99.90
17483;DHT22;8858;52.308;20.994;2023-06-22T12:02:03;29.50;99.90
17483;DHT22;8858;52.308;20.994;2023-06-22T12:04:34;29.60;99.90
17483;DHT22;8858;52.308;20.994;2023-06-22T12:07:03;29.70;99.90
17483;DHT22;8858;52.308;20.994;2023-06-22T12:09:32;29.70;99.90
17483;DHT22;8858;52.308;20.994;2023-06-22T12:12:04;29.80;99.90
17483;DHT22;8858;52.308;20.994;2023-06-22T12:14:33;29.90;99.90
17483;DHT22;8858;52.308;20.994;2023-06-22T12:17:01;30.00;99.90
17483;DHT22;8858;52.308;20.994;2023-06-22T12:19:32;30.20;99.90
17483;DHT22;8858;52.308;20.994;2023-06-22T12:22:00;30.20;99.90
17483;DHT22;8858;52.308;20.994;2023-06-22T12:24:28;30.00;99.90
17483;DHT22;8858;52.308;20.994;2023-06-22T12:26:58;30.10;99.90
17483;DHT22;8858;52.308;20.994;2023-06-22T12:29:26;30.30;99.90
17483;DHT22;8858;52.308;20.994;2023-06-22T12:31:55;30.60;99.90
17483;DHT22;8858;52.308;20.994;2023-06-22T12:34:23;30.80;99.90
17483;DHT22;8858;52.308;20.994;2023-06-22T12:36:52;30.90;99.90
17483;DHT22;8858;52.308;20.994;2023-06-22T12:39:21;31.10;99.90
17483;DHT22;8858;52.308;20.994;2023-06-22T12:41:50;31.20;99.90
17483;DHT22;8858;52.308;20.994;2023-06-22T12:44:19;31.30;99.60
17483;DHT22;8858;52.308;20.994;2023-06-22T12:46:48;31.50;99.90
17483;DHT22;8858;52.308;20.994;2023-06-22T12:49:16;31.60;99.20
17483;DHT22;8858;52.308;20.994;2023-06-22T12:51:47;31.60;99.20
17483;DHT22;8858;52.308;20.994;2023-06-22T12:54:16;31.70;98.00
17483;DHT22;8858;52.308;20.994;2023-06-22T12:56:50;31.80;96.90
17483;DHT22;8858;52.308;20.994;2023-06-22T12:59:21;31.70;97.30
17483;DHT22;8858;52.308;20.994;2023-06-22T13:01:51;31.70;97.60
17483;DHT22;8858;52.308;20.994;2023-06-22T13:04:19;31.80;96.20
17483;DHT22;8858;52.308;20.994;2023-06-22T13:06:48;32.00;96.70
17483;DHT22;8858;52.308;20.994;2023-06-22T13:09:19;32.10;96.20
17483;DHT22;8858;52.308;20.994;2023-06-22T13:11:48;32.20;97.30
17483;DHT22;8858;52.308;20.994;2023-06-22T13:14:16;32.30;97.20
17483;DHT22;8858;52.308;20.994;2023-06-22T13:16:46;32.40;96.90
17483;DHT22;8858;52.308;20.994;2023-06-22T13:19:14;32.90;96.50
17483;DHT22;8858;52.308;20.994;2023-06-22T13:21:46;33.40;96.40
17483;DHT22;8858;52.308;20.994;2023-06-22T13:24:14;34.10;96.10
17483;DHT22;8858;52.308;20.994;2023-06-22T13:26:43;35.00;94.90
17483;DHT22;8858;52.308;20.994;2023-06-22T13:29:14;36.30;93.90
17483;DHT22;8858;52.308;20.994;2023-06-22T13:31:43;37.30;92.30
17483;DHT22;8858;52.308;20.994;2023-06-22T13:34:16;38.50;91.10
17483;DHT22;8858;52.308;20.994;2023-06-22T13:36:45;40.00;87.70
17483;DHT22;8858;52.308;20.994;2023-06-22T13:39:14;41.40;83.20
17483;DHT22;8858;52.308;20.994;2023-06-22T13:41:43;42.70;78.90
17483;DHT22;8858;52.308;20.994;2023-06-22T13:44:11;43.70;75.70
17483;DHT22;8858;52.308;20.994;2023-06-22T13:46:42;42.80;73.90
17483;DHT22;8858;52.308;20.994;2023-06-22T13:49:11;42.00;75.00
17483;DHT22;8858;52.308;20.994;2023-06-22T13:51:41;42.20;73.90
17483;DHT22;8858;52.308;20.994;2023-06-22T13:54:10;42.80;73.30
17483;DHT22;8858;52.308;20.994;2023-06-22T13:56:58;43.70;72.10
17483;DHT22;8858;52.308;20.994;2023-06-22T13:59:26;44.20;69.80
17483;DHT22;8858;52.308;20.994;2023-06-22T14:01:55;44.60;69.00
17483;DHT22;8858;52.308;20.994;2023-06-22T14:04:23;45.60;67.10
17483;DHT22;8858;52.308;20.994;2023-06-22T14:06:53;46.50;65.70
17483;DHT22;8858;52.308;20.994;2023-06-22T14:09:23;46.90;64.60
17483;DHT22;8858;52.308;20.994;2023-06-22T14:11:54;47.80;62.50
17483;DHT22;8858;52.308;20.994;2023-06-22T14:14:22;48.40;61.10
17483;DHT22;8858;52.308;20.994;2023-06-22T14:16:50;48.50;59.60
17483;DHT22;8858;52.308;20.994;2023-06-22T14:19:19;48.70;58.80
17483;DHT22;8858;52.308;20.994;2023-06-22T14:21:47;49.20;58.00
17483;DHT22;8858;52.308;20.994;2023-06-22T14:24:17;49.20;57.60
17483;DHT22;8858;52.308;20.994;2023-06-22T14:26:49;48.50;57.40
17483;DHT22;8858;52.308;20.994;2023-06-22T14:29:19;47.30;58.50
17483;DHT22;8858;52.308;20.994;2023-06-22T14:31:48;45.60;59.20
17483;DHT22;8858;52.308;20.994;2023-06-22T14:34:16;43.90;61.30
17483;DHT22;8858;52.308;20.994;2023-06-22T14:36:45;44.20;62.00
17483;DHT22;8858;52.308;20.994;2023-06-22T14:39:13;45.20;59.80
17483;DHT22;8858;52.308;20.994;2023-06-22T14:41:48;45.60;58.90
17483;DHT22;8858;52.308;20.994;2023-06-22T14:44:16;45.90;58.60
17483;DHT22;8858;52.308;20.994;2023-06-22T14:46:45;46.70;57.80
17483;DHT22;8858;52.308;20.994;2023-06-22T14:49:13;47.30;57.80
17483;DHT22;8858;52.308;20.994;2023-06-22T14:51:42;47.50;56.40
17483;DHT22;8858;52.308;20.994;2023-06-22T14:54:10;47.20;56.20
17483;DHT22;8858;52.308;20.994;2023-06-22T14:56:39;47.00;56.40
17483;DHT22;8858;52.308;20.994;2023-06-22T14:59:09;47.50;57.40
17483;DHT22;8858;52.308;20.994;2023-06-22T15:01:41;48.10;54.90
17483;DHT22;8858;52.308;20.994;2023-06-22T15:04:22;47.80;54.50
17483;DHT22;8858;52.308;20.994;2023-06-22T15:06:57;47.30;54.90
17483;DHT22;8858;52.308;20.994;2023-06-22T15:09:25;47.30;55.80
17483;DHT22;8858;52.308;20.994;2023-06-22T15:11:56;47.60;55.90
17483;DHT22;8858;52.308;20.994;2023-06-22T15:14:26;47.50;55.40
17483;DHT22;8858;52.308;20.994;2023-06-22T15:16:57;46.90;55.90
17483;DHT22;8858;52.308;20.994;2023-06-22T15:19:26;46.10;56.70
17483;DHT22;8858;52.308;20.994;2023-06-22T15:21:54;45.30;57.00
17483;DHT22;8858;52.308;20.994;2023-06-22T15:24:26;44.80;57.40
17483;DHT22;8858;52.308;20.994;2023-06-22T15:26:55;44.70;57.00
17483;DHT22;8858;52.308;20.994;2023-06-22T15:29:25;44.40;56.90
17483;DHT22;8858;52.308;20.994;2023-06-22T15:31:53;44.00;57.30
17483;DHT22;8858;52.308;20.994;2023-06-22T15:34:22;44.10;57.40
17483;DHT22;8858;52.308;20.994;2023-06-22T15:36:54;43.60;57.10
17483;DHT22;8858;52.308;20.994;2023-06-22T15:39:22;43.30;57.20
17483;DHT22;8858;52.308;20.994;2023-06-22T15:41:53;43.30;57.70
17483;DHT22;8858;52.308;20.994;2023-06-22T15:44:22;43.40;57.40
17483;DHT22;8858;52.308;20.994;2023-06-22T15:46:53;43.00;57.30
17483;DHT22;8858;52.308;20.994;2023-06-22T15:49:21;42.80;57.50